createdAt,value
2019-05-11T00:02:16.388Z,38.80
2019-05-11T00:04:47.093Z,39.88
2019-05-11T00:07:17.416Z,38.28
2019-05-11T00:09:57.597Z,36.98
2019-05-11T00:12:20.533Z,39.90
2019-05-11T00:14:51.717Z,36.08
2019-05-11T00:17:21.926Z,36.42
2019-05-11T00:19:52.127Z,37.20
2019-05-11T00:22:22.341Z,35.70
2019-05-11T00:24:52.578Z,36.70
2019-05-11T00:27:22.853Z,37.35
2019-05-11T00:29:53.112Z,35.40
2019-05-11T00:32:23.374Z,35.58
2019-05-11T00:34:53.556Z,32.63
2019-05-11T00:37:23.730Z,32.55
2019-05-11T00:39:53.949Z,34.27
2019-05-11T00:42:24.166Z,32.25
2019-05-11T00:44:54.378Z,33.13
2019-05-11T00:47:24.589Z,35.45
2019-05-11T00:49:54.808Z,31.12
2019-05-11T00:52:24.992Z,31.27
2019-05-11T00:54:55.218Z,31.75
2019-05-11T00:57:25.391Z,31.33
2019-05-11T00:59:55.620Z,33.33
2019-05-11T01:02:25.811Z,31.02
2019-05-11T01:04:56.034Z,31.27
2019-05-11T01:07:26.207Z,30.25
2019-05-11T01:09:57.497Z,32.70
2019-05-11T01:12:26.054Z,30.27
2019-05-11T01:14:56.414Z,31.10
2019-05-11T01:17:26.586Z,28.87
2019-05-11T01:19:56.806Z,27.25
2019-05-11T01:22:26.981Z,29.10
2019-05-11T01:24:57.308Z,27.90
2019-05-11T01:27:27.500Z,26.70
2019-05-11T01:29:57.727Z,28.30
2019-05-11T01:32:28.982Z,28.77
2019-05-11T01:34:59.213Z,27.67
2019-05-11T01:37:29.432Z,27.05
2019-05-11T01:39:59.634Z,27.48
2019-05-11T01:42:29.865Z,25.43
2019-05-11T01:45:00.387Z,26.50
2019-05-11T01:47:30.581Z,26.95
2019-05-11T01:50:01.240Z,26.37
2019-05-11T01:52:31.466Z,26.20
2019-05-11T01:55:01.704Z,27.02
2019-05-11T01:57:31.944Z,24.30
2019-05-11T02:00:02.200Z,24.70
2019-05-11T02:02:33.567Z,24.43
2019-05-11T02:05:21.244Z,24.65
2019-05-11T02:07:51.420Z,23.42
2019-05-11T02:10:21.649Z,24.55
2019-05-11T02:12:51.905Z,24.27
2019-05-11T02:15:22.144Z,23.27
2019-05-11T02:17:52.341Z,24.72
2019-05-11T02:20:22.575Z,21.60
2019-05-11T02:22:54.873Z,22.42
2019-05-11T02:25:25.107Z,22.20
2019-05-11T02:27:55.281Z,22.25
2019-05-11T02:30:25.610Z,22.60
2019-05-11T02:32:55.798Z,24.18
2019-05-11T02:35:26.113Z,22.75
2019-05-11T02:37:56.292Z,20.40
2019-05-11T02:40:26.532Z,21.07
2019-05-11T02:42:56.754Z,20.57
2019-05-11T02:45:37.410Z,20.50
2019-05-11T02:48:07.674Z,21.40
2019-05-11T02:50:40.821Z,19.12
2019-05-11T02:53:10.998Z,18.70
2019-05-11T02:55:41.228Z,20.60
2019-05-11T02:58:11.540Z,20.17
2019-05-11T03:00:42.841Z,20.27
2019-05-11T03:03:13.167Z,20.43
2019-05-11T03:05:43.451Z,17.73
2019-05-11T03:08:13.751Z,26.45
2019-05-11T03:10:43.948Z,46.95
2019-05-11T03:13:14.363Z,33.78
2019-05-11T03:15:44.545Z,33.75
2019-05-11T03:18:15.341Z,30.32
2019-05-11T03:20:45.527Z,29.32
2019-05-11T03:23:15.749Z,32.35
2019-05-11T03:25:45.931Z,30.15
2019-05-11T03:28:16.189Z,25.62
2019-05-11T03:30:46.514Z,28.77
2019-05-11T03:33:16.713Z,25.72
2019-05-11T03:35:46.909Z,29.32
2019-05-11T03:38:17.074Z,30.32
2019-05-11T03:40:47.377Z,27.70
2019-05-11T03:43:17.560Z,28.00
2019-05-11T03:45:47.782Z,25.65
2019-05-11T03:48:18.031Z,25.17
2019-05-11T03:50:48.261Z,28.25
2019-05-11T03:53:18.487Z,25.20
2019-05-11T03:55:48.668Z,23.55
2019-05-11T03:58:18.883Z,24.30
2019-05-11T04:00:49.103Z,25.57
2019-05-11T04:03:19.533Z,24.65
2019-05-11T04:05:49.792Z,24.40
2019-05-11T04:08:19.988Z,21.87
2019-05-11T04:10:50.217Z,24.02
2019-05-11T04:13:20.444Z,24.25
2019-05-11T04:15:50.634Z,30.57
2019-05-11T04:18:20.946Z,20.30
2019-05-11T04:20:51.127Z,22.93
2019-05-11T04:23:21.323Z,21.27
2019-05-11T04:25:51.614Z,19.73
2019-05-11T04:28:21.797Z,21.97
2019-05-11T04:30:52.024Z,22.37
2019-05-11T04:33:22.251Z,21.00
2019-05-11T04:35:52.456Z,22.45
2019-05-11T04:38:22.683Z,19.52
2019-05-11T04:40:54.946Z,22.00
2019-05-11T04:43:25.160Z,19.80
2019-05-11T04:45:55.375Z,18.12
2019-05-11T04:48:25.758Z,20.27
2019-05-11T04:50:56.009Z,20.32
2019-05-11T04:53:26.264Z,20.62
2019-05-11T04:55:56.753Z,20.55
2019-05-11T04:58:27.002Z,21.80
2019-05-11T05:00:57.380Z,20.65
2019-05-11T05:03:40.272Z,18.70
2019-05-11T05:06:20.908Z,19.60
2019-05-11T05:08:31.369Z,19.23
2019-05-11T05:11:01.705Z,21.07
2019-05-11T05:13:31.893Z,19.82
2019-05-11T05:16:02.933Z,18.30
2019-05-11T05:18:33.178Z,21.15
2019-05-11T05:21:03.395Z,18.87
2019-05-11T05:23:33.596Z,19.37
2019-05-11T05:26:03.768Z,21.80
2019-05-11T05:28:33.959Z,20.80
2019-05-11T05:31:04.144Z,22.70
2019-05-11T05:33:34.786Z,26.15
2019-05-11T05:36:05.030Z,21.70
2019-05-11T05:38:35.250Z,22.48
2019-05-11T05:41:05.421Z,24.23
2019-05-11T05:43:35.680Z,25.62
2019-05-11T05:46:05.865Z,25.88
2019-05-11T05:48:36.113Z,31.85
2019-05-11T05:51:06.326Z,25.72
2019-05-11T05:53:36.506Z,28.77
2019-05-11T05:56:06.728Z,30.00
2019-05-11T05:58:36.948Z,30.37
2019-05-11T06:01:10.104Z,32.03
2019-05-11T06:03:39.274Z,34.27
2019-05-11T06:06:09.444Z,35.35
2019-05-11T06:08:43.039Z,35.05
2019-05-11T06:11:11.504Z,32.48
2019-05-11T06:13:45.497Z,33.63
2019-05-11T06:16:13.942Z,37.08
2019-05-11T06:18:44.390Z,32.75
2019-05-11T06:21:14.797Z,33.85
2019-05-11T06:23:45.204Z,35.08
2019-05-11T06:26:15.607Z,35.38
2019-05-11T06:28:45.977Z,34.18
2019-05-11T06:31:16.593Z,35.92
2019-05-11T06:33:46.977Z,36.13
2019-05-11T06:36:17.244Z,37.30
2019-05-11T06:38:47.532Z,37.60
2019-05-11T06:41:17.951Z,36.88
2019-05-11T06:44:01.419Z,37.08
2019-05-11T06:46:20.238Z,36.80
2019-05-11T06:48:50.620Z,35.55
2019-05-11T06:51:21.094Z,38.78
2019-05-11T06:53:51.482Z,37.90
2019-05-11T06:56:21.948Z,36.05
2019-05-11T06:58:52.420Z,36.68
2019-05-11T07:01:22.867Z,37.05
2019-05-11T07:03:53.233Z,37.15
2019-05-11T07:06:26.174Z,37.28
2019-05-11T07:08:55.514Z,39.48
2019-05-11T07:11:25.712Z,40.05
2019-05-11T07:13:56.151Z,36.48
2019-05-11T07:16:26.549Z,39.67
2019-05-11T07:18:57.015Z,37.23
2019-05-11T07:21:27.285Z,36.73
2019-05-11T07:23:57.701Z,35.58
2019-05-11T07:26:28.330Z,36.70
2019-05-11T07:28:58.623Z,37.42
2019-05-11T07:31:29.067Z,34.43
2019-05-11T07:33:59.535Z,36.53
2019-05-11T07:36:30.014Z,36.20
2019-05-11T07:39:00.322Z,36.70
2019-05-11T07:41:30.813Z,35.03
2019-05-11T07:44:01.276Z,36.23
2019-05-11T07:46:31.703Z,35.98
2019-05-11T07:49:02.044Z,36.68
2019-05-11T07:51:32.470Z,37.35
2019-05-11T07:54:03.128Z,34.13
2019-05-11T07:56:33.615Z,35.75
2019-05-11T07:59:03.931Z,33.42
2019-05-11T08:01:34.262Z,34.45
2019-05-11T08:04:04.697Z,33.48
2019-05-11T08:06:35.023Z,34.05
2019-05-11T08:09:08.349Z,35.05
2019-05-11T08:11:39.120Z,32.28
2019-05-11T08:14:10.416Z,32.25
2019-05-11T08:16:40.672Z,32.48
2019-05-11T08:19:11.155Z,33.95
2019-05-11T08:21:41.524Z,32.63
2019-05-11T08:24:11.995Z,33.67
2019-05-11T08:26:42.293Z,33.98
2019-05-11T08:29:12.687Z,32.38
2019-05-11T08:31:42.979Z,33.65
2019-05-11T08:34:13.298Z,31.60
2019-05-11T08:36:43.962Z,31.52
2019-05-11T08:39:14.410Z,33.25
2019-05-11T08:41:44.743Z,30.57
2019-05-11T08:44:15.141Z,30.12
2019-05-11T08:46:47.681Z,31.95
2019-05-11T08:49:18.981Z,31.05
2019-05-11T08:51:49.709Z,33.02
2019-05-11T08:54:20.297Z,34.25
2019-05-11T08:56:50.630Z,29.20
2019-05-11T08:59:21.044Z,29.55
2019-05-11T09:01:51.281Z,30.57
2019-05-11T09:04:22.531Z,31.93
2019-05-11T09:06:52.914Z,28.65
2019-05-11T09:09:24.061Z,29.57
2019-05-11T09:11:54.368Z,28.92
2019-05-11T09:14:24.689Z,27.87
2019-05-11T09:16:57.590Z,30.72
2019-05-11T09:19:28.457Z,29.37
2019-05-11T09:21:59.093Z,28.52
2019-05-11T09:24:29.509Z,29.60
2019-05-11T09:26:59.901Z,27.60
2019-05-11T09:29:30.284Z,30.02
2019-05-11T09:32:00.702Z,29.40
2019-05-11T09:34:31.079Z,28.42
2019-05-11T09:37:02.036Z,29.30
2019-05-11T09:39:32.492Z,28.07
2019-05-11T09:42:02.976Z,28.07
2019-05-11T09:44:34.571Z,27.48
2019-05-11T09:47:04.790Z,26.07
2019-05-11T09:49:46.422Z,26.85
2019-05-11T09:52:09.538Z,28.02
2019-05-11T09:54:40.061Z,28.05
2019-05-11T09:57:10.430Z,25.68
2019-05-11T09:59:40.773Z,26.15
2019-05-11T10:02:11.243Z,27.73
2019-05-11T10:04:41.669Z,26.75
2019-05-11T10:07:11.990Z,24.98
2019-05-11T10:09:42.460Z,26.07
2019-05-11T10:12:12.870Z,25.90
2019-05-11T10:14:43.324Z,25.52
2019-05-11T10:17:13.769Z,24.45
2019-05-11T10:19:46.750Z,24.30
2019-05-11T10:22:18.419Z,26.48
2019-05-11T10:24:48.357Z,25.50
2019-05-11T10:27:19.027Z,25.32
2019-05-11T10:29:49.619Z,24.85
2019-05-11T10:32:19.911Z,24.90
2019-05-11T10:34:51.354Z,25.25
2019-05-11T10:37:21.737Z,24.82
2019-05-11T10:39:52.013Z,25.77
2019-05-11T10:42:22.392Z,25.02
2019-05-11T10:44:52.860Z,26.42
2019-05-11T10:47:23.332Z,25.77
2019-05-11T10:49:53.767Z,24.07
2019-05-11T10:52:24.098Z,26.33
2019-05-11T10:54:54.627Z,23.02
2019-05-11T10:57:25.051Z,23.38
2019-05-11T10:59:57.827Z,24.30
2019-05-11T11:02:27.983Z,25.30
2019-05-11T11:04:58.946Z,23.30
2019-05-11T11:07:29.326Z,22.52
2019-05-11T11:09:59.697Z,23.75
2019-05-11T11:12:30.064Z,22.52
2019-05-11T11:15:00.537Z,24.67
2019-05-11T11:17:31.507Z,21.82
2019-05-11T11:20:02.151Z,23.10
2019-05-11T11:22:39.964Z,22.65
2019-05-11T11:25:05.111Z,20.90
2019-05-11T11:27:37.917Z,23.30
2019-05-11T11:30:09.177Z,21.45
2019-05-11T11:32:39.971Z,21.70
2019-05-11T11:35:10.251Z,22.10
2019-05-11T11:37:40.722Z,22.10
2019-05-11T11:40:11.529Z,21.87
2019-05-11T11:42:43.073Z,21.37
2019-05-11T11:45:13.393Z,21.02
2019-05-11T11:47:43.785Z,21.10
2019-05-11T11:50:14.355Z,20.68
2019-05-11T11:52:47.737Z,23.00
2019-05-11T11:55:19.345Z,21.70
2019-05-11T11:57:50.512Z,20.68
2019-05-11T12:00:20.987Z,21.70
2019-05-11T12:02:51.406Z,20.62
2019-05-11T12:05:21.686Z,20.48
2019-05-11T12:07:52.208Z,20.88
2019-05-11T12:10:22.486Z,20.15
2019-05-11T12:12:54.359Z,20.88
2019-05-11T12:15:24.909Z,20.27
2019-05-11T12:17:55.395Z,20.23
2019-05-11T12:20:28.468Z,19.87
2019-05-11T12:22:58.614Z,21.48
2019-05-11T12:25:29.131Z,19.80
2019-05-11T12:27:59.404Z,20.05
2019-05-11T12:30:29.703Z,19.15
2019-05-11T12:33:00.207Z,19.37
2019-05-11T12:35:30.682Z,22.07
2019-05-11T12:38:01.028Z,18.67
2019-05-11T12:40:32.750Z,21.48
2019-05-11T12:43:03.109Z,19.77
2019-05-11T12:45:33.686Z,20.92
2019-05-11T12:48:04.077Z,20.68
2019-05-11T12:50:34.387Z,19.37
2019-05-11T12:53:04.667Z,19.90
2019-05-11T12:55:33.304Z,20.60
2019-05-11T12:58:02.308Z,19.30
2019-05-11T13:00:32.936Z,17.20
2019-05-11T13:03:04.437Z,20.43
2019-05-11T13:05:34.806Z,18.80
2019-05-11T13:08:07.764Z,17.52
2019-05-11T13:10:39.385Z,19.85
2019-05-11T13:13:09.778Z,20.68
2019-05-11T13:15:40.203Z,18.00
2019-05-11T13:18:10.980Z,17.05
2019-05-11T13:20:41.368Z,16.80
2019-05-11T13:23:11.772Z,16.97
2019-05-11T13:25:42.164Z,18.37
2019-05-11T13:28:12.573Z,18.02
2019-05-11T13:30:43.005Z,18.95
2019-05-11T13:33:13.396Z,18.25
2019-05-11T13:35:43.805Z,18.17
2019-05-11T13:38:14.291Z,17.85
2019-05-11T13:40:44.675Z,16.65
2019-05-11T13:43:15.136Z,18.10
2019-05-11T13:45:45.408Z,16.80
2019-05-11T13:48:17.730Z,18.65
2019-05-11T13:50:48.145Z,18.15
2019-05-11T13:53:18.622Z,17.95
2019-05-11T13:55:48.969Z,16.77
2019-05-11T13:58:20.081Z,18.85
2019-05-11T14:00:50.457Z,16.55
2019-05-11T14:03:20.749Z,16.48
2019-05-11T14:05:51.242Z,16.20
2019-05-11T14:08:21.767Z,16.70
2019-05-11T14:10:52.195Z,18.12
2019-05-11T14:13:22.582Z,16.77
2019-05-11T14:15:53.061Z,15.75
2019-05-11T14:18:23.411Z,16.27
2019-05-11T14:20:53.758Z,18.07
2019-05-11T14:23:24.229Z,18.10
2019-05-11T14:25:54.608Z,15.88
2019-05-11T14:28:24.984Z,16.42
2019-05-11T14:30:57.714Z,15.90
2019-05-11T14:33:28.232Z,15.78
2019-05-11T14:35:58.817Z,16.35
2019-05-11T14:38:29.114Z,16.65
2019-05-11T14:40:59.390Z,18.05
2019-05-11T14:43:29.729Z,17.67
2019-05-11T14:46:00.322Z,16.65
2019-05-11T14:48:32.047Z,17.23
2019-05-11T14:51:02.405Z,16.62
2019-05-11T14:53:32.740Z,16.15
2019-05-11T14:56:03.030Z,16.27
2019-05-11T14:58:33.390Z,16.35
2019-05-11T15:01:03.804Z,15.43
2019-05-11T15:03:34.298Z,17.87
2019-05-11T15:06:04.712Z,15.80
2019-05-11T15:08:35.130Z,16.48
2019-05-11T15:11:05.318Z,15.78
2019-05-11T15:13:37.999Z,15.32
2019-05-11T15:16:08.205Z,15.65
2019-05-11T15:18:41.878Z,15.78
2019-05-11T15:21:10.671Z,15.15
2019-05-11T15:23:41.264Z,16.17
2019-05-11T15:26:11.480Z,15.68
2019-05-11T15:28:41.792Z,14.98
2019-05-11T15:31:12.080Z,15.28
2019-05-11T15:33:42.346Z,15.08
2019-05-11T15:36:12.700Z,15.23
2019-05-11T15:38:43.089Z,16.17
2019-05-11T15:41:13.420Z,17.40
2019-05-11T15:43:43.732Z,14.80
2019-05-11T15:46:14.132Z,15.20
2019-05-11T15:48:56.781Z,14.45
2019-05-11T15:51:18.517Z,14.80
2019-05-11T15:53:50.262Z,15.90
2019-05-11T15:56:20.987Z,14.53
2019-05-11T15:58:51.416Z,15.88
2019-05-11T16:01:22.420Z,15.28
2019-05-11T16:03:52.925Z,15.15
2019-05-11T16:06:23.387Z,14.83
2019-05-11T16:08:53.708Z,13.00
2019-05-11T16:11:25.447Z,15.45
2019-05-11T16:13:55.741Z,13.65
2019-05-11T16:16:28.006Z,13.75
2019-05-11T16:19:10.534Z,15.98
2019-05-11T16:21:32.641Z,12.68
2019-05-11T16:24:03.061Z,14.23
2019-05-11T16:26:35.548Z,14.87
2019-05-11T16:29:11.069Z,14.73
2019-05-11T16:31:38.129Z,14.78
2019-05-11T16:34:08.557Z,15.18
2019-05-11T16:36:39.159Z,15.35
2019-05-11T16:39:10.420Z,13.88
2019-05-11T16:41:42.305Z,14.15
2019-05-11T16:44:12.685Z,13.13
2019-05-11T16:46:43.148Z,12.98
2019-05-11T16:49:24.854Z,14.03
2019-05-11T16:51:45.508Z,12.65
2019-05-11T16:54:15.924Z,13.43
2019-05-11T16:56:48.526Z,14.30
2019-05-11T16:59:18.375Z,15.83
2019-05-11T17:01:51.027Z,23.90
2019-05-11T17:04:21.497Z,21.97
2019-05-11T17:06:51.814Z,22.77
2019-05-11T17:09:22.227Z,21.33
2019-05-11T17:11:52.561Z,21.48
2019-05-11T17:14:28.050Z,20.92
2019-05-11T17:16:58.606Z,22.70
2019-05-11T17:19:42.944Z,20.62
2019-05-11T17:22:01.747Z,22.27
2019-05-11T17:24:33.149Z,23.67
2019-05-11T17:27:03.605Z,31.73
2019-05-11T17:29:34.148Z,42.98
2019-05-11T17:32:04.601Z,51.50
2019-05-11T17:34:35.030Z,50.48
2019-05-11T17:37:08.862Z,51.83
2019-05-11T17:39:39.018Z,46.75
2019-05-11T17:42:09.929Z,46.98
2019-05-11T17:44:40.327Z,40.95
2019-05-11T17:47:10.660Z,49.05
2019-05-11T17:49:55.982Z,43.45
2019-05-11T17:52:13.140Z,43.15
2019-05-11T17:54:43.554Z,37.15
2019-05-11T17:57:15.431Z,28.52
2019-05-11T17:59:47.641Z,23.62
2019-05-11T18:02:18.249Z,30.68
2019-05-11T18:04:49.408Z,28.70
2019-05-11T18:07:27.171Z,30.85
2019-05-11T18:09:52.837Z,33.67
2019-05-11T18:12:23.317Z,27.35
2019-05-11T18:14:54.713Z,25.48
2019-05-11T18:17:24.892Z,29.95
2019-05-11T18:19:55.298Z,37.28
2019-05-11T18:22:28.335Z,50.35
2019-05-11T18:24:58.175Z,54.45
2019-05-11T18:27:28.705Z,63.05
2019-05-11T18:29:59.273Z,63.70
2019-05-11T18:32:29.705Z,80.90
2019-05-11T18:35:00.110Z,66.67
2019-05-11T18:37:32.468Z,65.62
2019-05-11T18:40:02.991Z,63.73
2019-05-11T18:42:33.588Z,74.80
2019-05-11T18:45:04.042Z,116.40
2019-05-11T18:47:34.640Z,150.25
2019-05-11T18:50:05.397Z,162.15
2019-05-11T18:52:35.822Z,123.80
2019-05-11T18:55:08.362Z,136.52
2019-05-11T18:57:38.579Z,162.20
2019-05-11T19:00:09.550Z,164.25
2019-05-11T19:02:40.018Z,137.88
2019-05-11T19:05:11.265Z,130.93
2019-05-11T19:07:41.638Z,123.28
2019-05-11T19:10:12.141Z,94.97
2019-05-11T19:12:42.503Z,101.12
2019-05-11T19:15:12.911Z,100.38
2019-05-11T19:17:43.369Z,67.12
2019-05-11T19:20:13.943Z,52.75
2019-05-11T19:22:44.439Z,88.07
2019-05-11T19:25:13.094Z,91.80
2019-05-11T19:27:43.772Z,120.08
2019-05-11T19:30:14.152Z,141.32
2019-05-11T19:32:44.577Z,169.87
2019-05-11T19:35:17.584Z,135.45
2019-05-11T19:37:49.646Z,109.57
2019-05-11T19:40:21.250Z,96.08
2019-05-11T19:42:55.096Z,79.45
2019-05-11T19:45:29.606Z,74.30
2019-05-11T19:48:00.218Z,76.57
2019-05-11T19:50:31.538Z,104.05
2019-05-11T19:53:04.716Z,96.50
2019-05-11T19:55:35.293Z,78.57
2019-05-11T19:58:05.587Z,81.60
2019-05-11T20:00:37.877Z,69.00
2019-05-11T20:03:08.973Z,75.52
2019-05-11T20:05:40.750Z,69.05
2019-05-11T20:08:11.302Z,72.35
2019-05-11T20:10:41.560Z,76.75
2019-05-11T20:13:11.955Z,106.43
2019-05-11T20:15:42.461Z,115.00
2019-05-11T20:18:12.674Z,92.30
2019-05-11T20:20:43.081Z,85.38
2019-05-11T20:23:13.365Z,97.02
2019-05-11T20:25:43.949Z,89.52
2019-05-11T20:28:14.339Z,83.03
2019-05-11T20:30:48.284Z,84.87
2019-05-11T20:33:20.261Z,87.02
2019-05-11T20:35:50.783Z,89.77
2019-05-11T20:38:21.250Z,86.28
2019-05-11T20:40:51.827Z,83.47
2019-05-11T20:43:22.145Z,81.08
2019-05-11T20:45:52.424Z,94.65
2019-05-11T20:48:22.848Z,82.20
2019-05-11T20:50:53.170Z,80.95
2019-05-11T20:53:23.632Z,83.37
2019-05-11T20:55:54.024Z,79.27
2019-05-11T20:58:24.445Z,100.05
2019-05-11T21:00:55.012Z,88.20
2019-05-11T21:03:27.570Z,78.20
2019-05-11T21:05:58.639Z,80.47
2019-05-11T21:08:29.262Z,85.30
2019-05-11T21:10:59.522Z,79.82
2019-05-11T21:13:29.804Z,83.62
2019-05-11T21:16:00.085Z,88.58
2019-05-11T21:18:31.348Z,80.00
2019-05-11T21:21:01.801Z,83.67
2019-05-11T21:23:32.168Z,79.58
2019-05-11T21:26:02.709Z,82.00
2019-05-11T21:28:33.072Z,85.25
2019-05-11T21:31:03.499Z,88.37
2019-05-11T21:33:33.981Z,83.62
2019-05-11T21:36:04.199Z,80.42
2019-05-11T21:38:34.582Z,81.28
2019-05-11T21:41:04.826Z,80.95
2019-05-11T21:43:37.294Z,83.07
2019-05-11T21:46:08.213Z,83.33
2019-05-11T21:48:38.678Z,81.50
2019-05-11T21:51:09.210Z,80.17
2019-05-11T21:53:39.589Z,79.67
2019-05-11T21:56:10.043Z,79.27
2019-05-11T21:58:40.501Z,79.53
2019-05-11T22:01:11.132Z,78.20
2019-05-11T22:03:41.584Z,81.05
2019-05-11T22:06:11.777Z,79.12
2019-05-11T22:08:42.137Z,80.35
2019-05-11T22:11:14.272Z,81.50
2019-05-11T22:13:44.950Z,77.50
2019-05-11T22:16:15.343Z,76.00
2019-05-11T22:18:45.945Z,74.75
2019-05-11T22:21:18.627Z,76.33
2019-05-11T22:23:50.662Z,77.67
2019-05-11T22:26:21.057Z,72.75
2019-05-11T22:28:51.434Z,73.15
2019-05-11T22:31:21.914Z,75.28
2019-05-11T22:33:52.128Z,71.95
2019-05-11T22:36:22.537Z,76.72
2019-05-11T22:38:53.002Z,71.57
2019-05-11T22:41:23.356Z,70.92
2019-05-11T22:43:53.768Z,70.62
2019-05-11T22:46:24.198Z,73.17
2019-05-11T22:48:54.575Z,74.97
2019-05-11T22:51:25.050Z,70.30
2019-05-11T22:53:55.263Z,71.00
2019-05-11T22:56:25.545Z,74.42
2019-05-11T22:58:55.957Z,68.52
2019-05-11T23:01:28.189Z,71.77
2019-05-11T23:03:58.595Z,69.20
2019-05-11T23:06:29.034Z,67.27
2019-05-11T23:08:59.609Z,70.97
2019-05-11T23:11:29.985Z,65.20
2019-05-11T23:14:00.499Z,71.45
2019-05-11T23:16:31.945Z,66.65
2019-05-11T23:19:02.387Z,68.00
2019-05-11T23:21:32.712Z,66.07
2019-05-11T23:24:03.138Z,66.17
2019-05-11T23:26:33.561Z,65.65
2019-05-11T23:29:03.928Z,68.00
2019-05-11T23:31:35.277Z,67.95
2019-05-11T23:34:05.487Z,64.05
2019-05-11T23:36:38.130Z,67.03
2019-05-11T23:39:09.123Z,65.28
2019-05-11T23:41:39.656Z,64.75
2019-05-11T23:44:10.060Z,63.70
2019-05-11T23:46:40.363Z,68.52
2019-05-11T23:49:10.756Z,64.22
2019-05-11T23:51:41.186Z,63.68
2019-05-11T23:54:11.664Z,60.35
2019-05-11T23:56:42.036Z,62.25
2019-05-11T23:59:12.500Z,62.53
